sensor_id;sensor_type;location;lat;lon;timestamp;pressure;altitude;pressure_sealevel;temperature;humidity
48041;BME280;33815;48.386;11.738;2024-02-21T00:01:05;97545.38;;;2.83;100.00
48041;BME280;33815;48.386;11.738;2024-02-21T00:03:31;97541.63;;;2.73;100.00
48041;BME280;33815;48.386;11.738;2024-02-21T00:05:56;97541.78;;;2.70;100.00
48041;BME280;33815;48.386;11.738;2024-02-21T00:08:22;97532.91;;;2.58;100.00
48041;BME280;33815;48.386;11.738;2024-02-21T00:10:47;97531.94;;;2.61;100.00
48041;BME280;33815;48.386;11.738;2024-02-21T00:13:12;97545.88;;;2.74;100.00
48041;BME280;33815;48.386;11.738;2024-02-21T00:15:37;97526.59;;;2.65;100.00
48041;BME280;33815;48.386;11.738;2024-02-21T00:18:03;97528.13;;;2.68;100.00
48041;BME280;33815;48.386;11.738;2024-02-21T00:20:28;97527.47;;;2.64;100.00
48041;BME280;33815;48.386;11.738;2024-02-21T00:22:53;97511.06;;;2.49;100.00
48041;BME280;33815;48.386;11.738;2024-02-21T00:25:19;97525.00;;;2.63;100.00
48041;BME280;33815;48.386;11.738;2024-02-21T00:27:45;97523.41;;;2.60;100.00
48041;BME280;33815;48.386;11.738;2024-02-21T00:30:10;97520.66;;;2.63;100.00
48041;BME280;33815;48.386;11.738;2024-02-21T00:32:36;97526.59;;;2.65;100.00
48041;BME280;33815;48.386;11.738;2024-02-21T00:35:01;97518.69;;;2.68;100.00
48041;BME280;33815;48.386;11.738;2024-02-21T00:37:27;97510.13;;;2.68;100.00
48041;BME280;33815;48.386;11.738;2024-02-21T00:39:54;97516.03;;;2.70;100.00
48041;BME280;33815;48.386;11.738;2024-02-21T00:42:19;97518.69;;;2.68;100.00
48041;BME280;33815;48.386;11.738;2024-02-21T00:44:44;97512.66;;;2.69;100.00
48041;BME280;33815;48.386;11.738;2024-02-21T00:47:10;97511.06;;;2.67;100.00
48041;BME280;33815;48.386;11.738;2024-02-21T00:49:35;97497.56;;;2.62;100.00
48041;BME280;33815;48.386;11.738;2024-02-21T00:52:00;97504.25;;;2.66;100.00
48041;BME280;33815;48.386;11.738;2024-02-21T00:54:26;97499.25;;;2.63;100.00
48041;BME280;33815;48.386;11.738;2024-02-21T00:56:51;97494.63;;;2.69;100.00
48041;BME280;33815;48.386;11.738;2024-02-21T00:59:16;97496.75;;;2.61;100.00
48041;BME280;33815;48.386;11.738;2024-02-21T01:01:43;97505.31;;;2.62;100.00
48041;BME280;33815;48.386;11.738;2024-02-21T01:04:09;97504.25;;;2.66;100.00
48041;BME280;33815;48.386;11.738;2024-02-21T01:06:34;97504.25;;;2.66;100.00
48041;BME280;33815;48.386;11.738;2024-02-21T01:09:00;97502.00;;;2.60;100.00
48041;BME280;33815;48.386;11.738;2024-02-21T01:11:25;97494.75;;;2.66;100.00
48041;BME280;33815;48.386;11.738;2024-02-21T01:13:50;97493.34;;;2.61;100.00
48041;BME280;33815;48.386;11.738;2024-02-21T01:16:16;97479.53;;;2.46;100.00
48041;BME280;33815;48.386;11.738;2024-02-21T01:18:41;97489.41;;;2.53;100.00
48041;BME280;33815;48.386;11.738;2024-02-21T01:21:07;97485.25;;;2.51;100.00
48041;BME280;33815;48.386;11.738;2024-02-21T01:23:36;97473.81;;;2.56;100.00
48041;BME280;33815;48.386;11.738;2024-02-21T01:26:05;97469.69;;;2.54;100.00
48041;BME280;33815;48.386;11.738;2024-02-21T01:28:33;97480.34;;;2.64;100.00
48041;BME280;33815;48.386;11.738;2024-02-21T01:30:59;97478.16;;;2.72;100.00
48041;BME280;33815;48.386;11.738;2024-02-21T01:33:24;97478.16;;;2.72;100.00
48041;BME280;33815;48.386;11.738;2024-02-21T01:35:49;97475.28;;;2.78;100.00
48041;BME280;33815;48.386;11.738;2024-02-21T01:38:15;97473.94;;;2.71;100.00
48041;BME280;33815;48.386;11.738;2024-02-21T01:40:40;97471.50;;;2.68;100.00
48041;BME280;33815;48.386;11.738;2024-02-21T01:43:15;97462.72;;;2.72;100.00
48041;BME280;33815;48.386;11.738;2024-02-21T01:45:41;97460.41;;;2.67;100.00
48041;BME280;33815;48.386;11.738;2024-02-21T01:48:07;97463.88;;;2.66;100.00
48041;BME280;33815;48.386;11.738;2024-02-21T01:50:33;97465.38;;;2.70;100.00
48041;BME280;33815;48.386;11.738;2024-02-21T01:52:58;97450.91;;;2.68;100.00
48041;BME280;33815;48.386;11.738;2024-02-21T01:55:24;97446.09;;;2.62;100.00
48041;BME280;33815;48.386;11.738;2024-02-21T01:57:49;97442.47;;;2.66;100.00
48041;BME280;33815;48.386;11.738;2024-02-21T02:00:16;97444.41;;;2.78;100.00
48041;BME280;33815;48.386;11.738;2024-02-21T02:02:41;97437.75;;;2.74;100.00
48041;BME280;33815;48.386;11.738;2024-02-21T02:05:07;97420.38;;;2.62;100.00
48041;BME280;33815;48.386;11.738;2024-02-21T02:07:33;97421.69;;;2.69;100.00
48041;BME280;33815;48.386;11.738;2024-02-21T02:09:58;97419.72;;;2.74;100.00
48041;BME280;33815;48.386;11.738;2024-02-21T02:12:24;97411.19;;;2.89;100.00
48041;BME280;33815;48.386;11.738;2024-02-21T02:15:02;97419.81;;;2.88;100.00
48041;BME280;33815;48.386;11.738;2024-02-21T02:17:31;97417.66;;;2.97;100.00
48041;BME280;33815;48.386;11.738;2024-02-21T02:19:56;97415.44;;;2.90;100.00
48041;BME280;33815;48.386;11.738;2024-02-21T02:22:28;97403.13;;;2.80;100.00
48041;BME280;33815;48.386;11.738;2024-02-21T02:24:54;97401.47;;;2.79;100.00
48041;BME280;33815;48.386;11.738;2024-02-21T02:27:20;97404.13;;;2.77;100.00
48041;BME280;33815;48.386;11.738;2024-02-21T02:29:48;97406.84;;;2.74;100.00
48041;BME280;33815;48.386;11.738;2024-02-21T02:32:13;97390.16;;;2.65;100.00
48041;BME280;33815;48.386;11.738;2024-02-21T02:34:38;97385.16;;;2.62;100.00
48041;BME280;33815;48.386;11.738;2024-02-21T02:37:03;97377.94;;;2.53;100.00
48041;BME280;33815;48.386;11.738;2024-02-21T02:39:29;97374.75;;;2.48;100.00
48041;BME280;33815;48.386;11.738;2024-02-21T02:41:54;97385.75;;;2.51;100.00
48041;BME280;33815;48.386;11.738;2024-02-21T02:44:19;97369.88;;;2.43;100.00
48041;BME280;33815;48.386;11.738;2024-02-21T02:46:44;97384.06;;;2.50;100.00
48041;BME280;33815;48.386;11.738;2024-02-21T02:49:10;97370.59;;;2.45;100.00
48041;BME280;33815;48.386;11.738;2024-02-21T02:51:35;97360.72;;;2.37;100.00
48041;BME280;33815;48.386;11.738;2024-02-21T02:54:02;97358.16;;;2.37;100.00
48041;BME280;33815;48.386;11.738;2024-02-21T02:56:27;97363.88;;;2.43;100.00
48041;BME280;33815;48.386;11.738;2024-02-21T02:58:52;97368.63;;;2.50;100.00
48041;BME280;33815;48.386;11.738;2024-02-21T03:01:18;97353.00;;;2.37;100.00
48041;BME280;33815;48.386;11.738;2024-02-21T03:03:43;97372.19;;;2.48;100.00
48041;BME280;33815;48.386;11.738;2024-02-21T03:06:10;97360.00;;;2.51;100.00
48041;BME280;33815;48.386;11.738;2024-02-21T03:08:35;97351.78;;;2.45;100.00
48041;BME280;33815;48.386;11.738;2024-02-21T03:11:01;97355.25;;;2.44;100.00
48041;BME280;33815;48.386;11.738;2024-02-21T03:13:26;97347.63;;;2.42;100.00
48041;BME280;33815;48.386;11.738;2024-02-21T03:15:51;97370.22;;;2.53;100.00
48041;BME280;33815;48.386;11.738;2024-02-21T03:18:16;97369.16;;;2.57;100.00
48041;BME280;33815;48.386;11.738;2024-02-21T03:20:42;97366.41;;;2.60;100.00
48041;BME280;33815;48.386;11.738;2024-02-21T03:23:07;97375.13;;;2.57;100.00
48041;BME280;33815;48.386;11.738;2024-02-21T03:25:32;97377.69;;;2.57;100.00
48041;BME280;33815;48.386;11.738;2024-02-21T03:27:58;97374.47;;;2.54;100.00
48041;BME280;33815;48.386;11.738;2024-02-21T03:30:23;97371.63;;;2.59;100.00
48041;BME280;33815;48.386;11.738;2024-02-21T03:32:48;97364.22;;;2.52;100.00
48041;BME280;33815;48.386;11.738;2024-02-21T03:35:14;97363.22;;;2.55;100.00
48041;BME280;33815;48.386;11.738;2024-02-21T03:37:39;97378.38;;;2.61;100.00
48041;BME280;33815;48.386;11.738;2024-02-21T03:40:09;97375.28;;;2.70;100.00
48041;BME280;33815;48.386;11.738;2024-02-21T03:42:34;97372.06;;;2.67;100.00
48041;BME280;33815;48.386;11.738;2024-02-21T03:44:59;97366.31;;;2.62;100.00
48041;BME280;33815;48.386;11.738;2024-02-21T03:47:25;97357.00;;;2.59;100.00
48041;BME280;33815;48.386;11.738;2024-02-21T03:49:50;97350.78;;;2.47;100.00
48041;BME280;33815;48.386;11.738;2024-02-21T03:52:15;97342.38;;;2.44;100.00
48041;BME280;33815;48.386;11.738;2024-02-21T03:54:41;97335.09;;;2.36;100.00
48041;BME280;33815;48.386;11.738;2024-02-21T03:57:07;97347.78;;;2.39;100.00
48041;BME280;33815;48.386;11.738;2024-02-21T03:59:32;97351.75;;;2.29;100.00
48041;BME280;33815;48.386;11.738;2024-02-21T04:01:57;97341.16;;;2.17;100.00
48041;BME280;33815;48.386;11.738;2024-02-21T04:04:23;97354.78;;;2.19;100.00
48041;BME280;33815;48.386;11.738;2024-02-21T04:06:49;97327.13;;;2.07;100.00
48041;BME280;33815;48.386;11.738;2024-02-21T04:09:15;97330.47;;;2.09;100.00
48041;BME280;33815;48.386;11.738;2024-02-21T04:11:41;97347.91;;;2.20;100.00
48041;BME280;33815;48.386;11.738;2024-02-21T04:14:06;97333.59;;;2.14;100.00
48041;BME280;33815;48.386;11.738;2024-02-21T04:16:32;97327.66;;;2.14;100.00
48041;BME280;33815;48.386;11.738;2024-02-21T04:18:57;97335.63;;;2.25;100.00
48041;BME280;33815;48.386;11.738;2024-02-21T04:21:23;97338.03;;;2.28;100.00
48041;BME280;33815;48.386;11.738;2024-02-21T04:23:48;97335.31;;;2.31;100.00
48041;BME280;33815;48.386;11.738;2024-02-21T04:26:13;97301.25;;;2.10;100.00
48041;BME280;33815;48.386;11.738;2024-02-21T04:28:38;97328.34;;;2.33;100.00
48041;BME280;33815;48.386;11.738;2024-02-21T04:31:04;97314.88;;;2.28;100.00
48041;BME280;33815;48.386;11.738;2024-02-21T04:33:29;97326.44;;;2.37;100.00
48041;BME280;33815;48.386;11.738;2024-02-21T04:35:54;97312.06;;;2.33;100.00
48041;BME280;33815;48.386;11.738;2024-02-21T04:38:20;97326.28;;;2.40;100.00
48041;BME280;33815;48.386;11.738;2024-02-21T04:40:45;97318.41;;;2.43;100.00
48041;BME280;33815;48.386;11.738;2024-02-21T04:43:11;97310.78;;;2.42;100.00
48041;BME280;33815;48.386;11.738;2024-02-21T04:45:36;97301.31;;;2.42;100.00
48041;BME280;33815;48.386;11.738;2024-02-21T04:48:01;97286.94;;;2.38;100.00
48041;BME280;33815;48.386;11.738;2024-02-21T04:50:27;97295.69;;;2.51;100.00
48041;BME280;33815;48.386;11.738;2024-02-21T04:52:52;97278.50;;;2.36;100.00
48041;BME280;33815;48.386;11.738;2024-02-21T04:55:17;97276.06;;;2.33;100.00
48041;BME280;33815;48.386;11.738;2024-02-21T04:57:43;97281.53;;;2.43;100.00
48041;BME280;33815;48.386;11.738;2024-02-21T05:00:08;97276.91;;;2.33;100.00
48041;BME280;33815;48.386;11.738;2024-02-21T05:02:34;97270.25;;;2.29;100.00
48041;BME280;33815;48.386;11.738;2024-02-21T05:04:59;97271.34;;;2.25;100.00
48041;BME280;33815;48.386;11.738;2024-02-21T05:07:25;97267.19;;;2.22;100.00
48041;BME280;33815;48.386;11.738;2024-02-21T05:09:50;97266.44;;;2.20;100.00
48041;BME280;33815;48.386;11.738;2024-02-21T05:12:16;97262.94;;;2.21;100.00
48041;BME280;33815;48.386;11.738;2024-02-21T05:14:41;97259.03;;;2.14;100.00
48041;BME280;33815;48.386;11.738;2024-02-21T05:17:06;97264.09;;;2.16;100.00
48041;BME280;33815;48.386;11.738;2024-02-21T05:19:32;97255.56;;;2.15;100.00
48041;BME280;33815;48.386;11.738;2024-02-21T05:21:58;97258.22;;;2.14;100.00
48041;BME280;33815;48.386;11.738;2024-02-21T05:24:24;97253.25;;;2.11;100.00
48041;BME280;33815;48.386;11.738;2024-02-21T05:26:49;97251.50;;;2.11;100.00
48041;BME280;33815;48.386;11.738;2024-02-21T05:29:14;97253.16;;;2.12;100.00
48041;BME280;33815;48.386;11.738;2024-02-21T05:31:55;97255.56;;;2.15;100.00
48041;BME280;33815;48.386;11.738;2024-02-21T05:34:23;97244.47;;;2.15;100.00
48041;BME280;33815;48.386;11.738;2024-02-21T05:36:49;97242.69;;;2.15;100.00
48041;BME280;33815;48.386;11.738;2024-02-21T05:39:15;97219.72;;;2.12;100.00
48041;BME280;33815;48.386;11.738;2024-02-21T05:41:41;97229.75;;;2.33;100.00
48041;BME280;33815;48.386;11.738;2024-02-21T05:44:07;97217.47;;;2.38;100.00
48041;BME280;33815;48.386;11.738;2024-02-21T05:46:32;97223.69;;;2.34;100.00
48041;BME280;33815;48.386;11.738;2024-02-21T05:48:57;97216.41;;;2.26;100.00
48041;BME280;33815;48.386;11.738;2024-02-21T05:51:22;97218.91;;;2.28;100.00
48041;BME280;33815;48.386;11.738;2024-02-21T05:53:48;97198.97;;;2.15;100.00
48041;BME280;33815;48.386;11.738;2024-02-21T05:56:14;97208.63;;;2.28;100.00
48041;BME280;33815;48.386;11.738;2024-02-21T05:58:39;97205.44;;;2.22;100.00
48041;BME280;33815;48.386;11.738;2024-02-21T06:01:05;97209.94;;;2.19;100.00
48041;BME280;33815;48.386;11.738;2024-02-21T06:03:32;97210.50;;;2.24;100.00
48041;BME280;33815;48.386;11.738;2024-02-21T06:05:57;97174.69;;;2.05;100.00
48041;BME280;33815;48.386;11.738;2024-02-21T06:08:23;97201.06;;;2.25;100.00
48041;BME280;33815;48.386;11.738;2024-02-21T06:10:48;97198.16;;;2.31;100.00
48041;BME280;33815;48.386;11.738;2024-02-21T06:13:13;97191.44;;;2.28;100.00
48041;BME280;33815;48.386;11.738;2024-02-21T06:15:39;97204.72;;;2.20;100.00
48041;BME280;33815;48.386;11.738;2024-02-21T06:18:04;97212.75;;;2.14;100.00
48041;BME280;33815;48.386;11.738;2024-02-21T06:20:29;97194.66;;;2.00;100.00
48041;BME280;33815;48.386;11.738;2024-02-21T06:22:55;97183.13;;;1.91;100.00
48041;BME280;33815;48.386;11.738;2024-02-21T06:25:20;97200.78;;;1.97;100.00
48041;BME280;33815;48.386;11.738;2024-02-21T06:27:45;97196.81;;;1.92;100.00
48041;BME280;33815;48.386;11.738;2024-02-21T06:30:11;97198.22;;;1.81;100.00
48041;BME280;33815;48.386;11.738;2024-02-21T06:32:36;97195.47;;;1.68;100.00
48041;BME280;33815;48.386;11.738;2024-02-21T06:35:01;97197.44;;;1.63;100.00
48041;BME280;33815;48.386;11.738;2024-02-21T06:37:27;97183.63;;;1.48;100.00
48041;BME280;33815;48.386;11.738;2024-02-21T06:39:52;97203.78;;;1.56;100.00
48041;BME280;33815;48.386;11.738;2024-02-21T06:42:18;97198.31;;;1.46;100.00
48041;BME280;33815;48.386;11.738;2024-02-21T06:44:44;97211.00;;;1.65;100.00
48041;BME280;33815;48.386;11.738;2024-02-21T06:47:09;97207.63;;;1.65;100.00
48041;BME280;33815;48.386;11.738;2024-02-21T06:49:35;97203.09;;;1.52;100.00
48041;BME280;33815;48.386;11.738;2024-02-21T06:52:03;97209.66;;;1.76;100.00
48041;BME280;33815;48.386;11.738;2024-02-21T06:54:29;97208.00;;;1.91;100.00
48041;BME280;33815;48.386;11.738;2024-02-21T06:56:54;97193.06;;;1.81;100.00
48041;BME280;33815;48.386;11.738;2024-02-21T06:59:19;97202.63;;;1.95;100.00
48041;BME280;33815;48.386;11.738;2024-02-21T07:01:48;97214.81;;;2.08;100.00
48041;BME280;33815;48.386;11.738;2024-02-21T07:04:14;97209.84;;;2.20;100.00
48041;BME280;33815;48.386;11.738;2024-02-21T07:06:40;97199.72;;;2.33;100.00
48041;BME280;33815;48.386;11.738;2024-02-21T07:09:05;97202.19;;;2.67;100.00
48041;BME280;33815;48.386;11.738;2024-02-21T07:11:30;97192.06;;;3.39;100.00
48041;BME280;33815;48.386;11.738;2024-02-21T07:13:55;97189.97;;;3.46;100.00
48041;BME280;33815;48.386;11.738;2024-02-21T07:16:21;97197.69;;;3.60;100.00
48041;BME280;33815;48.386;11.738;2024-02-21T07:18:46;97189.78;;;3.77;100.00
48041;BME280;33815;48.386;11.738;2024-02-21T07:21:11;97195.94;;;3.89;100.00
48041;BME280;33815;48.386;11.738;2024-02-21T07:23:40;97185.34;;;3.94;100.00
48041;BME280;33815;48.386;11.738;2024-02-21T07:26:06;97177.50;;;4.10;100.00
48041;BME280;33815;48.386;11.738;2024-02-21T07:28:31;97183.38;;;4.12;100.00
48041;BME280;33815;48.386;11.738;2024-02-21T07:30:59;97191.59;;;4.04;100.00
48041;BME280;33815;48.386;11.738;2024-02-21T07:33:24;97195.09;;;4.03;100.00
48041;BME280;33815;48.386;11.738;2024-02-21T07:35:49;97188.72;;;4.09;100.00
48041;BME280;33815;48.386;11.738;2024-02-21T07:38:15;97190.84;;;4.17;100.00
48041;BME280;33815;48.386;11.738;2024-02-21T07:40:40;97192.47;;;4.18;100.00
48041;BME280;33815;48.386;11.738;2024-02-21T07:43:05;97176.38;;;4.14;100.00
48041;BME280;33815;48.386;11.738;2024-02-21T07:45:31;97179.69;;;4.16;100.00
48041;BME280;33815;48.386;11.738;2024-02-21T07:47:56;97167.53;;;4.18;100.00
48041;BME280;33815;48.386;11.738;2024-02-21T07:50:21;97175.53;;;4.28;98.95
48041;BME280;33815;48.386;11.738;2024-02-21T07:52:47;97174.31;;;4.34;99.58
48041;BME280;33815;48.386;11.738;2024-02-21T07:55:12;97161.00;;;4.40;99.39
48041;BME280;33815;48.386;11.738;2024-02-21T07:57:37;97158.03;;;4.46;98.42
48041;BME280;33815;48.386;11.738;2024-02-21T08:00:03;97143.09;;;4.64;98.01
48041;BME280;33815;48.386;11.738;2024-02-21T08:02:30;97148.72;;;4.71;96.66
48041;BME280;33815;48.386;11.738;2024-02-21T08:04:58;97143.44;;;4.72;93.71
48041;BME280;33815;48.386;11.738;2024-02-21T08:07:24;97141.25;;;4.53;94.23
48041;BME280;33815;48.386;11.738;2024-02-21T08:09:49;97134.75;;;4.60;94.56
48041;BME280;33815;48.386;11.738;2024-02-21T08:12:14;97135.75;;;4.45;94.00
48041;BME280;33815;48.386;11.738;2024-02-21T08:14:40;97124.09;;;4.52;96.06
48041;BME280;33815;48.386;11.738;2024-02-21T08:17:05;97124.78;;;4.82;94.06
48041;BME280;33815;48.386;11.738;2024-02-21T08:19:30;97118.81;;;5.20;94.62
48041;BME280;33815;48.386;11.738;2024-02-21T08:21:56;97123.97;;;5.45;90.76
48041;BME280;33815;48.386;11.738;2024-02-21T08:24:21;97111.97;;;5.57;88.56
48041;BME280;33815;48.386;11.738;2024-02-21T08:26:48;97122.25;;;5.83;83.83
48041;BME280;33815;48.386;11.738;2024-02-21T08:29:13;97100.69;;;5.95;82.50
48041;BME280;33815;48.386;11.738;2024-02-21T08:31:38;97102.69;;;6.05;83.19
48041;BME280;33815;48.386;11.738;2024-02-21T08:34:04;97111.31;;;6.16;81.22
48041;BME280;33815;48.386;11.738;2024-02-21T08:38:55;97113.28;;;6.61;81.47
48041;BME280;33815;48.386;11.738;2024-02-21T08:41:21;97118.47;;;6.61;80.06
48041;BME280;33815;48.386;11.738;2024-02-21T08:43:48;97118.78;;;6.92;80.02
48041;BME280;33815;48.386;11.738;2024-02-21T08:46:14;97126.13;;;7.10;78.46
48041;BME280;33815;48.386;11.738;2024-02-21T08:48:39;97130.13;;;7.02;77.68
48041;BME280;33815;48.386;11.738;2024-02-21T08:51:04;97128.78;;;7.32;78.06
48041;BME280;33815;48.386;11.738;2024-02-21T08:53:30;97126.28;;;7.31;77.54
48041;BME280;33815;48.386;11.738;2024-02-21T08:55:56;97120.88;;;7.57;76.80
48041;BME280;33815;48.386;11.738;2024-02-21T08:58:21;97112.03;;;7.59;72.97
48041;BME280;33815;48.386;11.738;2024-02-21T09:00:48;97115.66;;;7.79;70.49
48041;BME280;33815;48.386;11.738;2024-02-21T09:03:13;97110.50;;;7.57;71.45
48041;BME280;33815;48.386;11.738;2024-02-21T09:05:39;97113.56;;;7.73;72.87
48041;BME280;33815;48.386;11.738;2024-02-21T09:08:04;97111.28;;;8.02;71.06
48041;BME280;33815;48.386;11.738;2024-02-21T09:10:30;97105.47;;;8.10;70.10
48041;BME280;33815;48.386;11.738;2024-02-21T09:12:56;97098.69;;;8.30;67.68
48041;BME280;33815;48.386;11.738;2024-02-21T09:15:21;97102.66;;;8.46;70.08
48041;BME280;33815;48.386;11.738;2024-02-21T09:17:47;97081.06;;;8.45;68.88
48041;BME280;33815;48.386;11.738;2024-02-21T09:20:12;97093.47;;;8.74;71.34
48041;BME280;33815;48.386;11.738;2024-02-21T09:22:38;97095.09;;;8.96;68.25
48041;BME280;33815;48.386;11.738;2024-02-21T09:25:05;97095.94;;;8.97;65.82
48041;BME280;33815;48.386;11.738;2024-02-21T09:27:30;97093.22;;;8.98;64.35
48041;BME280;33815;48.386;11.738;2024-02-21T09:29:56;97093.16;;;8.88;65.97
48041;BME280;33815;48.386;11.738;2024-02-21T09:32:21;97088.41;;;8.72;65.23
48041;BME280;33815;48.386;11.738;2024-02-21T09:34:46;97092.88;;;8.70;65.70
48041;BME280;33815;48.386;11.738;2024-02-21T09:37:12;97084.28;;;8.70;66.14
48041;BME280;33815;48.386;11.738;2024-02-21T09:39:37;97095.88;;;8.87;66.49
48041;BME280;33815;48.386;11.738;2024-02-21T09:42:06;97083.28;;;9.03;65.62
48041;BME280;33815;48.386;11.738;2024-02-21T09:44:36;97077.31;;;9.53;63.57
48041;BME280;33815;48.386;11.738;2024-02-21T09:47:19;97074.19;;;9.50;64.30
48041;BME280;33815;48.386;11.738;2024-02-21T09:49:47;97065.75;;;9.36;62.94
48041;BME280;33815;48.386;11.738;2024-02-21T09:52:14;97059.56;;;9.68;62.77
48041;BME280;33815;48.386;11.738;2024-02-21T09:54:41;97064.22;;;9.65;62.68
48041;BME280;33815;48.386;11.738;2024-02-21T09:57:10;97034.78;;;9.74;59.98
48041;BME280;33815;48.386;11.738;2024-02-21T09:59:37;97047.25;;;9.80;59.62
48041;BME280;33815;48.386;11.738;2024-02-21T10:02:02;97048.91;;;9.71;62.26
48041;BME280;33815;48.386;11.738;2024-02-21T10:04:28;97043.63;;;9.52;59.54
48041;BME280;33815;48.386;11.738;2024-02-21T10:06:54;97042.03;;;9.70;60.76
48041;BME280;33815;48.386;11.738;2024-02-21T10:09:23;97037.00;;;9.88;60.05
48041;BME280;33815;48.386;11.738;2024-02-21T10:11:50;97030.00;;;9.69;60.28
48041;BME280;33815;48.386;11.738;2024-02-21T10:14:16;97024.13;;;9.97;59.51
48041;BME280;33815;48.386;11.738;2024-02-21T10:16:41;97025.09;;;10.05;60.77
48041;BME280;33815;48.386;11.738;2024-02-21T10:19:16;97020.84;;;10.34;61.19
48041;BME280;33815;48.386;11.738;2024-02-21T10:21:41;97014.69;;;10.25;57.88
48041;BME280;33815;48.386;11.738;2024-02-21T10:24:07;97015.94;;;10.40;58.59
48041;BME280;33815;48.386;11.738;2024-02-21T10:26:32;97020.00;;;10.82;59.17
48041;BME280;33815;48.386;11.738;2024-02-21T10:28:57;97016.19;;;11.24;58.05
48041;BME280;33815;48.386;11.738;2024-02-21T10:31:29;97015.00;;;11.08;58.50
48041;BME280;33815;48.386;11.738;2024-02-21T10:33:59;97005.44;;;11.27;57.42
48041;BME280;33815;48.386;11.738;2024-02-21T10:36:25;97004.34;;;11.29;56.03
48041;BME280;33815;48.386;11.738;2024-02-21T10:38:51;96989.63;;;11.01;54.64
48041;BME280;33815;48.386;11.738;2024-02-21T10:41:19;96986.63;;;10.95;54.19
48041;BME280;33815;48.386;11.738;2024-02-21T10:43:49;96978.88;;;11.41;54.98
48041;BME280;33815;48.386;11.738;2024-02-21T10:46:19;96969.38;;;11.22;54.53
48041;BME280;33815;48.386;11.738;2024-02-21T10:48:45;96979.31;;;11.37;56.11
48041;BME280;33815;48.386;11.738;2024-02-21T10:51:16;96961.75;;;12.03;53.94
48041;BME280;33815;48.386;11.738;2024-02-21T10:56:28;96943.50;;;12.29;53.75
48041;BME280;33815;48.386;11.738;2024-02-21T10:58:59;96929.31;;;11.77;54.76
48041;BME280;33815;48.386;11.738;2024-02-21T11:01:26;96938.06;;;12.04;55.15
48041;BME280;33815;48.386;11.738;2024-02-21T11:03:56;96926.13;;;12.20;52.62
48041;BME280;33815;48.386;11.738;2024-02-21T11:06:22;96920.63;;;12.31;52.29
48041;BME280;33815;48.386;11.738;2024-02-21T11:09:02;96922.13;;;12.33;53.26
48041;BME280;33815;48.386;11.738;2024-02-21T11:11:28;96911.63;;;12.51;50.16
48041;BME280;33815;48.386;11.738;2024-02-21T11:14:09;96916.00;;;12.43;52.31
48041;BME280;33815;48.386;11.738;2024-02-21T11:16:40;96899.34;;;12.26;49.08
48041;BME280;33815;48.386;11.738;2024-02-21T11:19:09;96906.19;;;12.00;49.78
48041;BME280;33815;48.386;11.738;2024-02-21T11:21:43;96885.69;;;12.32;51.13
48041;BME280;33815;48.386;11.738;2024-02-21T11:24:09;96883.69;;;12.26;49.20
48041;BME280;33815;48.386;11.738;2024-02-21T11:26:37;96874.91;;;12.09;48.83
48041;BME280;33815;48.386;11.738;2024-02-21T11:29:02;96867.59;;;12.12;48.82
48041;BME280;33815;48.386;11.738;2024-02-21T11:31:39;96871.84;;;12.40;49.67
48041;BME280;33815;48.386;11.738;2024-02-21T11:34:11;96853.56;;;12.74;49.04
48041;BME280;33815;48.386;11.738;2024-02-21T11:36:46;96839.63;;;12.65;47.46
48041;BME280;33815;48.386;11.738;2024-02-21T11:39:12;96844.06;;;12.73;46.47
48041;BME280;33815;48.386;11.738;2024-02-21T11:41:38;96838.63;;;12.58;47.03
48041;BME280;33815;48.386;11.738;2024-02-21T11:44:03;96839.34;;;12.77;46.69
48041;BME280;33815;48.386;11.738;2024-02-21T11:46:29;96816.09;;;12.31;45.08
48041;BME280;33815;48.386;11.738;2024-02-21T11:48:54;96796.84;;;12.32;46.00
48041;BME280;33815;48.386;11.738;2024-02-21T11:51:25;96820.88;;;12.78;45.86
48041;BME280;33815;48.386;11.738;2024-02-21T11:53:52;96814.03;;;12.85;46.22
48041;BME280;33815;48.386;11.738;2024-02-21T11:56:18;96789.00;;;12.83;45.69
48041;BME280;33815;48.386;11.738;2024-02-21T11:58:45;96799.03;;;12.96;45.57
48041;BME280;33815;48.386;11.738;2024-02-21T12:01:11;96780.13;;;13.18;44.53
48041;BME280;33815;48.386;11.738;2024-02-21T12:03:36;96777.47;;;13.02;44.86
48041;BME280;33815;48.386;11.738;2024-02-21T12:06:02;96767.94;;;12.93;44.25
48041;BME280;33815;48.386;11.738;2024-02-21T12:08:40;96765.34;;;12.93;45.07
48041;BME280;33815;48.386;11.738;2024-02-21T12:11:19;96765.88;;;12.54;43.48
48041;BME280;33815;48.386;11.738;2024-02-21T12:13:44;96765.78;;;12.72;45.93
48041;BME280;33815;48.386;11.738;2024-02-21T12:16:10;96759.47;;;13.07;45.37
48041;BME280;33815;48.386;11.738;2024-02-21T12:18:36;96750.00;;;13.23;45.04
48041;BME280;33815;48.386;11.738;2024-02-21T12:21:01;96747.75;;;13.44;44.34
48041;BME280;33815;48.386;11.738;2024-02-21T12:23:27;96731.88;;;13.62;44.84
48041;BME280;33815;48.386;11.738;2024-02-21T12:25:52;96744.00;;;13.55;45.35
48041;BME280;33815;48.386;11.738;2024-02-21T12:28:19;96728.91;;;13.65;42.23
48041;BME280;33815;48.386;11.738;2024-02-21T12:30:44;96726.53;;;14.03;44.14
48041;BME280;33815;48.386;11.738;2024-02-21T12:33:10;96719.53;;;13.96;42.58
48041;BME280;33815;48.386;11.738;2024-02-21T12:35:35;96707.16;;;13.57;42.61
48041;BME280;33815;48.386;11.738;2024-02-21T12:38:00;96707.63;;;13.77;42.71
48041;BME280;33815;48.386;11.738;2024-02-21T12:40:26;96685.16;;;13.82;41.48
48041;BME280;33815;48.386;11.738;2024-02-21T12:42:57;96689.97;;;14.18;39.33
48041;BME280;33815;48.386;11.738;2024-02-21T12:45:23;96683.44;;;14.14;39.79
48041;BME280;33815;48.386;11.738;2024-02-21T12:47:48;96681.66;;;14.46;39.69
48041;BME280;33815;48.386;11.738;2024-02-21T12:50:13;96669.97;;;14.49;38.40
48041;BME280;33815;48.386;11.738;2024-02-21T12:52:40;96663.75;;;14.50;39.70